Airfield :







YOU CAN JOIN US ON...

 
LOGIN :

Register | Disclaimer

   EN    FR    IT 

 









Legend :    VFR   Marginal VFR   IFR   Intensive IFR   Very Intensive IFR
Visi :
Ceiling :
>= 8 km
>= 3000ft
5 to 8 km
1000 to 3000 ft
1500m to 5 km
500 to 1000 ft
800 to 1500m
200 to 500 ft
< 800m
< 200 ft
Symbols :   Thunderstorms  Fog  Heavy snow  Heavy precipitations  Wind > 20 kt







- Airport Elevation : 56 ft


KRKD - Knox County Regional

CURRENT METAR :
  • 251056Z AUTO VRB03KT 10SM FEW080 01/M08 A2999 RMK AO2 SLP159 T00061083 FZRANO

EXPIRED METARs :
  • 251010Z AUTO VRB05KT 10SM FEW024 BKN060 OVC080 02/M06 A2997 RMK AO2 FZRANO
  • 250956Z AUTO 33005KT 10SM BKN026 OVC060 02/M03 A2996 RMK AO2 SLP148 T00171033 FZRANO
  • 250948Z AUTO 35008KT 10SM BKN026 OVC050 02/M03 A2996 RMK AO2 FZRANO
  • 250856Z AUTO VRB05KT 10SM BKN060 OVC075 02/M03 A2993 RMK AO2 SLP137 T00221033 53009 FZRANO

TAF KRKD
Valid from the 25 at 12:00 until the 26 at 12:00 UTC


251120Z 2512/2612 32010KT P6SM SKC
FM252300 VRB04KT P6SM SKC
KZBW FIR / North America



MET'MAP, your aeronautical weather chart ! - Copyright ORBIFLY December 2007 - Disclaimer

ORBIFLY MET'MAP TEAM :

Programming & Development : Alexandra Zaïnal
Concept & Development : Baudouin d'Aumeries
Co-Development & Prog : Marc-Olivier Méhu
Technical & hardware support : Manuel Goepfert

Contact : metmap@orbifly.com




SOURCES & CREDITS :

   NOAA